sensor_id;sensor_type;location;lat;lon;timestamp;temperature;humidity
60242;SHT30;46103;52.076;113.488;2023-04-29T00:00:44;2.82;63.68
60242;SHT30;46103;52.076;113.488;2023-04-29T00:03:49;2.96;63.38
60242;SHT30;46103;52.076;113.488;2023-04-29T00:06:54;2.89;63.29
60242;SHT30;46103;52.076;113.488;2023-04-29T00:09:58;2.95;63.74
60242;SHT30;46103;52.076;113.488;2023-04-29T00:13:02;3.12;63.45
60242;SHT30;46103;52.076;113.488;2023-04-29T00:16:06;3.18;63.17
60242;SHT30;46103;52.076;113.488;2023-04-29T00:19:11;3.33;62.79
60242;SHT30;46103;52.076;113.488;2023-04-29T00:22:15;3.43;62.17
60242;SHT30;46103;52.076;113.488;2023-04-29T00:25:34;3.51;62.06
60242;SHT30;46103;52.076;113.488;2023-04-29T00:28:41;3.75;61.50
60242;SHT30;46103;52.076;113.488;2023-04-29T00:31:48;3.99;60.60
60242;SHT30;46103;52.076;113.488;2023-04-29T00:35:17;4.26;59.89
60242;SHT30;46103;52.076;113.488;2023-04-29T00:38:24;4.22;60.14
60242;SHT30;46103;52.076;113.488;2023-04-29T00:42:16;4.26;60.13
60242;SHT30;46103;52.076;113.488;2023-04-29T00:45:19;4.30;59.49
60242;SHT30;46103;52.076;113.488;2023-04-29T00:48:23;4.49;59.24
60242;SHT30;46103;52.076;113.488;2023-04-29T00:51:26;4.44;59.39
60242;SHT30;46103;52.076;113.488;2023-04-29T00:54:31;4.37;59.35
60242;SHT30;46103;52.076;113.488;2023-04-29T00:57:34;4.42;59.37
60242;SHT30;46103;52.076;113.488;2023-04-29T01:00:38;4.46;59.16
60242;SHT30;46103;52.076;113.488;2023-04-29T01:03:46;4.44;59.11
60242;SHT30;46103;52.076;113.488;2023-04-29T01:07:03;4.52;59.06
60242;SHT30;46103;52.076;113.488;2023-04-29T01:10:43;4.74;58.33
60242;SHT30;46103;52.076;113.488;2023-04-29T01:14:03;5.07;57.27
60242;SHT30;46103;52.076;113.488;2023-04-29T01:17:17;5.04;57.13
60242;SHT30;46103;52.076;113.488;2023-04-29T01:20:23;5.20;56.46
60242;SHT30;46103;52.076;113.488;2023-04-29T01:23:29;5.44;55.52
60242;SHT30;46103;52.076;113.488;2023-04-29T01:26:32;5.56;55.14
60242;SHT30;46103;52.076;113.488;2023-04-29T01:29:55;5.75;53.53
60242;SHT30;46103;52.076;113.488;2023-04-29T01:33:36;5.97;53.17
60242;SHT30;46103;52.076;113.488;2023-04-29T01:37:03;6.01;53.03
60242;SHT30;46103;52.076;113.488;2023-04-29T01:40:15;6.25;52.30
60242;SHT30;46103;52.076;113.488;2023-04-29T01:43:39;6.53;51.42
60242;SHT30;46103;52.076;113.488;2023-04-29T01:46:53;6.69;49.83
60242;SHT30;46103;52.076;113.488;2023-04-29T01:50:04;6.77;49.79
60242;SHT30;46103;52.076;113.488;2023-04-29T01:53:09;6.80;49.58
60242;SHT30;46103;52.076;113.488;2023-04-29T01:56:13;7.09;49.15
60242;SHT30;46103;52.076;113.488;2023-04-29T01:59:34;7.37;48.16
60242;SHT30;46103;52.076;113.488;2023-04-29T02:02:58;7.53;47.34
60242;SHT30;46103;52.076;113.488;2023-04-29T02:06:14;7.62;47.03
60242;SHT30;46103;52.076;113.488;2023-04-29T02:09:20;7.85;45.78
60242;SHT30;46103;52.076;113.488;2023-04-29T02:12:29;8.11;45.50
60242;SHT30;46103;52.076;113.488;2023-04-29T02:15:33;8.25;44.85
60242;SHT30;46103;52.076;113.488;2023-04-29T02:18:38;8.40;44.50
60242;SHT30;46103;52.076;113.488;2023-04-29T02:21:42;8.46;44.25
60242;SHT30;46103;52.076;113.488;2023-04-29T02:24:46;8.60;43.42
60242;SHT30;46103;52.076;113.488;2023-04-29T02:27:49;8.60;43.60
60242;SHT30;46103;52.076;113.488;2023-04-29T02:30:53;8.70;42.78
60242;SHT30;46103;52.076;113.488;2023-04-29T02:33:57;8.88;42.39
60242;SHT30;46103;52.076;113.488;2023-04-29T02:37:02;8.97;42.37
60242;SHT30;46103;52.076;113.488;2023-04-29T02:40:07;9.00;41.86
60242;SHT30;46103;52.076;113.488;2023-04-29T02:43:11;9.15;41.11
60242;SHT30;46103;52.076;113.488;2023-04-29T02:46:14;9.19;40.00
60242;SHT30;46103;52.076;113.488;2023-04-29T02:49:42;9.46;40.26
60242;SHT30;46103;52.076;113.488;2023-04-29T02:53:09;9.59;40.10
60242;SHT30;46103;52.076;113.488;2023-04-29T02:56:14;9.63;38.31
60242;SHT30;46103;52.076;113.488;2023-04-29T02:59:18;9.83;39.02
60242;SHT30;46103;52.076;113.488;2023-04-29T03:02:21;9.81;38.57
60242;SHT30;46103;52.076;113.488;2023-04-29T03:05:29;9.95;37.88
60242;SHT30;46103;52.076;113.488;2023-04-29T03:08:34;9.91;36.36
60242;SHT30;46103;52.076;113.488;2023-04-29T03:11:38;9.97;36.88
60242;SHT30;46103;52.076;113.488;2023-04-29T03:15:43;10.24;34.61
60242;SHT30;46103;52.076;113.488;2023-04-29T03:29:53;10.86;30.95
60242;SHT30;46103;52.076;113.488;2023-04-29T03:33:25;10.84;31.91
60242;SHT30;46103;52.076;113.488;2023-04-29T03:37:45;10.75;29.91
60242;SHT30;46103;52.076;113.488;2023-04-29T03:40:55;10.62;29.15
60242;SHT30;46103;52.076;113.488;2023-04-29T03:44:02;10.57;28.36
60242;SHT30;46103;52.076;113.488;2023-04-29T03:47:08;10.80;27.44
60242;SHT30;46103;52.076;113.488;2023-04-29T03:50:12;10.90;27.82
60242;SHT30;46103;52.076;113.488;2023-04-29T03:56:53;11.22;27.14
60242;SHT30;46103;52.076;113.488;2023-04-29T04:00:10;11.30;26.06
60242;SHT30;46103;52.076;113.488;2023-04-29T04:03:26;11.27;26.93
60242;SHT30;46103;52.076;113.488;2023-04-29T04:06:32;11.68;26.54
60242;SHT30;46103;52.076;113.488;2023-04-29T04:09:37;12.06;25.59
60242;SHT30;46103;52.076;113.488;2023-04-29T04:12:41;11.80;25.13
60242;SHT30;46103;52.076;113.488;2023-04-29T04:15:50;11.93;25.30
60242;SHT30;46103;52.076;113.488;2023-04-29T04:18:54;12.12;24.43
60242;SHT30;46103;52.076;113.488;2023-04-29T04:21:58;12.18;24.64
60242;SHT30;46103;52.076;113.488;2023-04-29T04:25:02;12.01;24.62
60242;SHT30;46103;52.076;113.488;2023-04-29T04:28:07;12.10;23.93
60242;SHT30;46103;52.076;113.488;2023-04-29T04:31:32;12.01;23.51
60242;SHT30;46103;52.076;113.488;2023-04-29T04:34:38;12.13;23.62
60242;SHT30;46103;52.076;113.488;2023-04-29T04:37:43;12.25;23.59
60242;SHT30;46103;52.076;113.488;2023-04-29T04:40:49;12.65;24.40
60242;SHT30;46103;52.076;113.488;2023-04-29T04:44:16;13.09;23.57
60242;SHT30;46103;52.076;113.488;2023-04-29T04:48:14;13.40;22.54
60242;SHT30;46103;52.076;113.488;2023-04-29T04:52:19;13.51;22.43
60242;SHT30;46103;52.076;113.488;2023-04-29T04:55:34;13.71;21.95
60242;SHT30;46103;52.076;113.488;2023-04-29T04:58:39;13.51;21.86
60242;SHT30;46103;52.076;113.488;2023-04-29T05:01:44;13.58;21.56
60242;SHT30;46103;52.076;113.488;2023-04-29T05:04:51;13.87;21.13
60242;SHT30;46103;52.076;113.488;2023-04-29T05:08:13;13.71;20.87
60242;SHT30;46103;52.076;113.488;2023-04-29T05:11:21;13.20;21.19
60242;SHT30;46103;52.076;113.488;2023-04-29T05:15:01;13.06;21.14
60242;SHT30;46103;52.076;113.488;2023-04-29T05:18:11;13.64;20.75
60242;SHT30;46103;52.076;113.488;2023-04-29T05:21:17;14.27;20.38
60242;SHT30;46103;52.076;113.488;2023-04-29T05:24:21;14.82;19.91
60242;SHT30;46103;52.076;113.488;2023-04-29T05:27:25;15.27;19.32
60242;SHT30;46103;52.076;113.488;2023-04-29T05:30:29;15.54;19.41
60242;SHT30;46103;52.076;113.488;2023-04-29T05:33:33;15.58;19.68
60242;SHT30;46103;52.076;113.488;2023-04-29T05:36:37;14.84;21.88
60242;SHT30;46103;52.076;113.488;2023-04-29T05:39:41;14.23;22.71
60242;SHT30;46103;52.076;113.488;2023-04-29T05:42:49;14.56;22.42
60242;SHT30;46103;52.076;113.488;2023-04-29T05:45:53;14.47;22.21
60242;SHT30;46103;52.076;113.488;2023-04-29T05:48:58;14.17;22.46
60242;SHT30;46103;52.076;113.488;2023-04-29T05:52:02;14.36;22.35
60242;SHT30;46103;52.076;113.488;2023-04-29T05:55:14;14.42;23.40
60242;SHT30;46103;52.076;113.488;2023-04-29T05:58:17;14.23;23.38
60242;SHT30;46103;52.076;113.488;2023-04-29T06:01:21;14.20;23.38
60242;SHT30;46103;52.076;113.488;2023-04-29T06:04:25;14.02;23.90
60242;SHT30;46103;52.076;113.488;2023-04-29T06:07:47;14.06;24.04
60242;SHT30;46103;52.076;113.488;2023-04-29T06:11:05;14.23;23.73
60242;SHT30;46103;52.076;113.488;2023-04-29T06:14:09;14.41;23.80
60242;SHT30;46103;52.076;113.488;2023-04-29T06:17:13;15.09;22.73
60242;SHT30;46103;52.076;113.488;2023-04-29T06:20:17;15.77;22.36
60242;SHT30;46103;52.076;113.488;2023-04-29T06:23:22;16.10;21.67
60242;SHT30;46103;52.076;113.488;2023-04-29T06:26:25;16.55;20.81
60242;SHT30;46103;52.076;113.488;2023-04-29T06:29:29;16.20;20.72
60242;SHT30;46103;52.076;113.488;2023-04-29T06:32:34;15.78;21.40
60242;SHT30;46103;52.076;113.488;2023-04-29T06:35:39;16.06;21.60
60242;SHT30;46103;52.076;113.488;2023-04-29T06:38:44;16.66;20.68
60242;SHT30;46103;52.076;113.488;2023-04-29T06:42:25;16.55;20.84
60242;SHT30;46103;52.076;113.488;2023-04-29T06:45:48;16.23;21.16
60242;SHT30;46103;52.076;113.488;2023-04-29T06:48:59;15.97;21.53
60242;SHT30;46103;52.076;113.488;2023-04-29T06:52:05;16.15;21.53
60242;SHT30;46103;52.076;113.488;2023-04-29T06:55:09;17.35;20.33
60242;SHT30;46103;52.076;113.488;2023-04-29T06:58:17;17.45;19.93
60242;SHT30;46103;52.076;113.488;2023-04-29T07:01:20;17.59;19.69
60242;SHT30;46103;52.076;113.488;2023-04-29T07:04:24;18.66;18.91
60242;SHT30;46103;52.076;113.488;2023-04-29T07:07:28;20.31;17.97
60242;SHT30;46103;52.076;113.488;2023-04-29T07:10:32;21.72;17.10
60242;SHT30;46103;52.076;113.488;2023-04-29T07:13:37;23.09;15.74
60242;SHT30;46103;52.076;113.488;2023-04-29T07:16:41;22.36;16.02
60242;SHT30;46103;52.076;113.488;2023-04-29T07:19:44;22.81;15.48
60242;SHT30;46103;52.076;113.488;2023-04-29T07:22:47;21.82;16.08
60242;SHT30;46103;52.076;113.488;2023-04-29T07:25:50;21.43;16.52
60242;SHT30;46103;52.076;113.488;2023-04-29T07:28:55;21.16;16.78
60242;SHT30;46103;52.076;113.488;2023-04-29T07:31:58;21.68;16.29
60242;SHT30;46103;52.076;113.488;2023-04-29T07:35:01;22.05;15.46
60242;SHT30;46103;52.076;113.488;2023-04-29T07:38:05;22.57;15.22
60242;SHT30;46103;52.076;113.488;2023-04-29T07:41:08;22.91;14.83
60242;SHT30;46103;52.076;113.488;2023-04-29T07:44:13;23.51;14.40
60242;SHT30;46103;52.076;113.488;2023-04-29T07:47:17;23.30;14.63
60242;SHT30;46103;52.076;113.488;2023-04-29T07:50:20;23.67;14.43
60242;SHT30;46103;52.076;113.488;2023-04-29T07:53:25;24.12;14.38
60242;SHT30;46103;52.076;113.488;2023-04-29T07:56:29;23.12;14.64
60242;SHT30;46103;52.076;113.488;2023-04-29T07:59:34;23.81;14.62
60242;SHT30;46103;52.076;113.488;2023-04-29T08:02:38;23.95;14.23
60242;SHT30;46103;52.076;113.488;2023-04-29T08:05:42;22.84;14.64
60242;SHT30;46103;52.076;113.488;2023-04-29T08:08:50;23.79;14.36
60242;SHT30;46103;52.076;113.488;2023-04-29T08:11:54;24.28;13.78
60242;SHT30;46103;52.076;113.488;2023-04-29T08:14:58;23.63;14.01
60242;SHT30;46103;52.076;113.488;2023-04-29T08:18:03;23.74;14.10
60242;SHT30;46103;52.076;113.488;2023-04-29T08:21:07;23.50;14.11
60242;SHT30;46103;52.076;113.488;2023-04-29T08:24:12;23.36;14.33
60242;SHT30;46103;52.076;113.488;2023-04-29T08:27:15;24.50;13.83
60242;SHT30;46103;52.076;113.488;2023-04-29T08:30:19;24.92;13.65
60242;SHT30;46103;52.076;113.488;2023-04-29T08:33:22;25.83;13.19
60242;SHT30;46103;52.076;113.488;2023-04-29T08:36:26;25.70;13.12
60242;SHT30;46103;52.076;113.488;2023-04-29T08:39:30;25.26;13.34
60242;SHT30;46103;52.076;113.488;2023-04-29T08:42:35;25.39;13.19
60242;SHT30;46103;52.076;113.488;2023-04-29T08:45:41;26.69;12.84
60242;SHT30;46103;52.076;113.488;2023-04-29T08:48:45;27.17;12.46
60242;SHT30;46103;52.076;113.488;2023-04-29T08:51:49;27.24;12.46
60242;SHT30;46103;52.076;113.488;2023-04-29T08:54:55;28.17;12.06
60242;SHT30;46103;52.076;113.488;2023-04-29T08:58:01;29.42;11.29
60242;SHT30;46103;52.076;113.488;2023-04-29T09:01:07;29.08;11.61
60242;SHT30;46103;52.076;113.488;2023-04-29T09:04:46;29.99;11.09
60242;SHT30;46103;52.076;113.488;2023-04-29T09:07:56;30.96;10.86
60242;SHT30;46103;52.076;113.488;2023-04-29T09:11:10;31.72;10.59
60242;SHT30;46103;52.076;113.488;2023-04-29T09:14:19;30.70;10.87
60242;SHT30;46103;52.076;113.488;2023-04-29T09:17:47;28.37;11.73
60242;SHT30;46103;52.076;113.488;2023-04-29T09:20:52;28.25;11.81
60242;SHT30;46103;52.076;113.488;2023-04-29T09:24:02;28.78;11.63
60242;SHT30;46103;52.076;113.488;2023-04-29T09:27:05;30.50;10.71
60242;SHT30;46103;52.076;113.488;2023-04-29T09:30:10;31.35;10.43
60242;SHT30;46103;52.076;113.488;2023-04-29T09:33:55;32.24;10.01
60242;SHT30;46103;52.076;113.488;2023-04-29T09:36:59;32.83;9.89
60242;SHT30;46103;52.076;113.488;2023-04-29T09:40:02;33.10;9.80
60242;SHT30;46103;52.076;113.488;2023-04-29T09:43:12;32.70;9.76
60242;SHT30;46103;52.076;113.488;2023-04-29T09:46:16;32.79;9.84
60242;SHT30;46103;52.076;113.488;2023-04-29T09:49:25;30.32;10.54
60242;SHT30;46103;52.076;113.488;2023-04-29T09:52:39;29.47;11.07
60242;SHT30;46103;52.076;113.488;2023-04-29T09:56:00;30.02;10.69
60242;SHT30;46103;52.076;113.488;2023-04-29T09:59:07;31.12;10.27
60242;SHT30;46103;52.076;113.488;2023-04-29T10:02:18;29.67;10.69
60242;SHT30;46103;52.076;113.488;2023-04-29T10:05:21;27.70;11.35
60242;SHT30;46103;52.076;113.488;2023-04-29T10:08:28;26.32;11.92
60242;SHT30;46103;52.076;113.488;2023-04-29T10:11:33;23.98;12.84
60242;SHT30;46103;52.076;113.488;2023-04-29T10:14:44;22.65;13.75
60242;SHT30;46103;52.076;113.488;2023-04-29T10:18:13;21.66;14.19
60242;SHT30;46103;52.076;113.488;2023-04-29T10:21:26;21.41;14.50
60242;SHT30;46103;52.076;113.488;2023-04-29T10:24:31;22.74;13.90
60242;SHT30;46103;52.076;113.488;2023-04-29T10:27:36;24.95;12.80
60242;SHT30;46103;52.076;113.488;2023-04-29T10:30:41;25.93;12.47
60242;SHT30;46103;52.076;113.488;2023-04-29T10:33:47;27.40;11.83
60242;SHT30;46103;52.076;113.488;2023-04-29T10:36:50;28.36;11.30
60242;SHT30;46103;52.076;113.488;2023-04-29T10:40:04;29.08;10.92
60242;SHT30;46103;52.076;113.488;2023-04-29T10:43:10;29.42;10.81
60242;SHT30;46103;52.076;113.488;2023-04-29T10:46:22;29.46;10.67
60242;SHT30;46103;52.076;113.488;2023-04-29T10:49:33;29.19;10.77
60242;SHT30;46103;52.076;113.488;2023-04-29T10:52:54;28.72;10.97
60242;SHT30;46103;52.076;113.488;2023-04-29T10:56:03;28.40;11.04
60242;SHT30;46103;52.076;113.488;2023-04-29T10:59:13;28.12;11.16
60242;SHT30;46103;52.076;113.488;2023-04-29T11:02:17;27.88;11.20
60242;SHT30;46103;52.076;113.488;2023-04-29T11:05:35;27.30;11.44
60242;SHT30;46103;52.076;113.488;2023-04-29T11:08:39;26.87;11.63
60242;SHT30;46103;52.076;113.488;2023-04-29T11:11:44;26.31;11.83
60242;SHT30;46103;52.076;113.488;2023-04-29T11:14:49;25.55;12.15
60242;SHT30;46103;52.076;113.488;2023-04-29T11:17:58;24.53;12.78
60242;SHT30;46103;52.076;113.488;2023-04-29T11:24:25;22.84;13.71
60242;SHT30;46103;52.076;113.488;2023-04-29T11:27:44;22.05;14.31
60242;SHT30;46103;52.076;113.488;2023-04-29T11:30:52;19.94;15.64
60242;SHT30;46103;52.076;113.488;2023-04-29T11:33:57;19.25;16.18
60242;SHT30;46103;52.076;113.488;2023-04-29T11:37:04;17.84;17.22
60242;SHT30;46103;52.076;113.488;2023-04-29T11:40:09;16.84;18.22
60242;SHT30;46103;52.076;113.488;2023-04-29T11:43:18;15.77;19.34
60242;SHT30;46103;52.076;113.488;2023-04-29T11:46:21;14.96;20.28
60242;SHT30;46103;52.076;113.488;2023-04-29T11:49:30;14.47;21.01
60242;SHT30;46103;52.076;113.488;2023-04-29T11:52:37;14.12;21.71
60242;SHT30;46103;52.076;113.488;2023-04-29T11:55:42;13.85;21.95
60242;SHT30;46103;52.076;113.488;2023-04-29T11:58:47;13.53;22.07
60242;SHT30;46103;52.076;113.488;2023-04-29T12:01:53;13.23;22.43
60242;SHT30;46103;52.076;113.488;2023-04-29T12:04:58;12.93;22.76
60242;SHT30;46103;52.076;113.488;2023-04-29T12:08:06;12.65;23.22
60242;SHT30;46103;52.076;113.488;2023-04-29T12:11:14;12.44;23.44
60242;SHT30;46103;52.076;113.488;2023-04-29T12:14:19;12.18;23.63
60242;SHT30;46103;52.076;113.488;2023-04-29T12:17:23;11.97;23.79
60242;SHT30;46103;52.076;113.488;2023-04-29T12:20:30;11.80;24.02
60242;SHT30;46103;52.076;113.488;2023-04-29T12:23:35;11.55;24.28
60242;SHT30;46103;52.076;113.488;2023-04-29T12:26:44;11.30;24.55
60242;SHT30;46103;52.076;113.488;2023-04-29T12:34:07;10.80;25.63
60242;SHT30;46103;52.076;113.488;2023-04-29T12:37:12;10.57;25.54
60242;SHT30;46103;52.076;113.488;2023-04-29T12:40:21;10.48;25.70
60242;SHT30;46103;52.076;113.488;2023-04-29T12:43:50;10.35;26.57
60242;SHT30;46103;52.076;113.488;2023-04-29T12:47:23;10.12;26.78
60242;SHT30;46103;52.076;113.488;2023-04-29T12:50:54;9.98;26.66
60242;SHT30;46103;52.076;113.488;2023-04-29T12:54:07;9.89;26.75
60242;SHT30;46103;52.076;113.488;2023-04-29T12:57:22;9.80;26.95
60242;SHT30;46103;52.076;113.488;2023-04-29T13:01:06;9.81;26.36
60242;SHT30;46103;52.076;113.488;2023-04-29T13:04:19;9.79;26.54
60242;SHT30;46103;52.076;113.488;2023-04-29T13:07:41;9.46;27.29
60242;SHT30;46103;52.076;113.488;2023-04-29T13:11:01;9.34;27.67
60242;SHT30;46103;52.076;113.488;2023-04-29T13:14:07;9.03;28.54
60242;SHT30;46103;52.076;113.488;2023-04-29T13:17:11;8.94;28.63
60242;SHT30;46103;52.076;113.488;2023-04-29T13:20:16;8.89;28.77
60242;SHT30;46103;52.076;113.488;2023-04-29T13:23:55;8.76;29.37
60242;SHT30;46103;52.076;113.488;2023-04-29T13:26:59;8.48;29.99
60242;SHT30;46103;52.076;113.488;2023-04-29T13:30:20;8.40;30.30
60242;SHT30;46103;52.076;113.488;2023-04-29T13:33:24;8.33;30.44
60242;SHT30;46103;52.076;113.488;2023-04-29T13:36:46;8.31;30.38
60242;SHT30;46103;52.076;113.488;2023-04-29T13:39:52;8.21;30.74
60242;SHT30;46103;52.076;113.488;2023-04-29T13:42:59;8.12;30.78
60242;SHT30;46103;52.076;113.488;2023-04-29T13:46:23;8.04;30.92
60242;SHT30;46103;52.076;113.488;2023-04-29T13:49:33;7.94;31.37
60242;SHT30;46103;52.076;113.488;2023-04-29T13:52:58;7.88;31.51
60242;SHT30;46103;52.076;113.488;2023-04-29T13:56:25;7.73;31.43
60242;SHT30;46103;52.076;113.488;2023-04-29T13:59:49;7.57;31.57
60242;SHT30;46103;52.076;113.488;2023-04-29T14:03:12;7.37;31.49
60242;SHT30;46103;52.076;113.488;2023-04-29T14:06:18;7.19;32.01
60242;SHT30;46103;52.076;113.488;2023-04-29T14:09:21;7.25;31.88
60242;SHT30;46103;52.076;113.488;2023-04-29T14:12:24;7.19;31.92
60242;SHT30;46103;52.076;113.488;2023-04-29T14:15:28;7.23;31.02
60242;SHT30;46103;52.076;113.488;2023-04-29T14:18:31;7.30;30.61
60242;SHT30;46103;52.076;113.488;2023-04-29T14:21:35;7.39;31.40
60242;SHT30;46103;52.076;113.488;2023-04-29T14:24:38;7.26;32.08
60242;SHT30;46103;52.076;113.488;2023-04-29T14:27:41;7.15;32.36
60242;SHT30;46103;52.076;113.488;2023-04-29T14:30:45;7.02;32.65
60242;SHT30;46103;52.076;113.488;2023-04-29T14:33:50;6.84;33.37
60242;SHT30;46103;52.076;113.488;2023-04-29T14:36:54;6.76;33.48
60242;SHT30;46103;52.076;113.488;2023-04-29T14:40:47;6.42;34.39
60242;SHT30;46103;52.076;113.488;2023-04-29T14:45:13;6.16;34.88
60242;SHT30;46103;52.076;113.488;2023-04-29T14:48:33;5.99;35.19
60242;SHT30;46103;52.076;113.488;2023-04-29T14:51:38;5.90;35.91
60242;SHT30;46103;52.076;113.488;2023-04-29T14:54:42;5.85;36.09
60242;SHT30;46103;52.076;113.488;2023-04-29T14:57:46;5.71;35.74
60242;SHT30;46103;52.076;113.488;2023-04-29T15:00:50;5.49;36.00
60242;SHT30;46103;52.076;113.488;2023-04-29T15:04:08;5.42;36.80
60242;SHT30;46103;52.076;113.488;2023-04-29T15:07:45;5.30;37.12
60242;SHT30;46103;52.076;113.488;2023-04-29T15:11:25;5.20;37.48
60242;SHT30;46103;52.076;113.488;2023-04-29T15:14:30;5.07;37.57
60242;SHT30;46103;52.076;113.488;2023-04-29T15:17:34;5.12;37.76
60242;SHT30;46103;52.076;113.488;2023-04-29T15:20:38;5.16;37.62
60242;SHT30;46103;52.076;113.488;2023-04-29T15:23:42;5.18;37.65
60242;SHT30;46103;52.076;113.488;2023-04-29T15:26:47;5.11;37.55
60242;SHT30;46103;52.076;113.488;2023-04-29T15:29:51;5.09;37.17
60242;SHT30;46103;52.076;113.488;2023-04-29T15:32:58;5.04;37.17
60242;SHT30;46103;52.076;113.488;2023-04-29T15:36:03;4.96;37.67
60242;SHT30;46103;52.076;113.488;2023-04-29T15:39:07;4.92;38.02
60242;SHT30;46103;52.076;113.488;2023-04-29T15:42:14;4.80;38.18
60242;SHT30;46103;52.076;113.488;2023-04-29T15:45:17;4.77;38.43
60242;SHT30;46103;52.076;113.488;2023-04-29T15:48:21;4.67;38.73
60242;SHT30;46103;52.076;113.488;2023-04-29T15:51:24;4.64;38.66
60242;SHT30;46103;52.076;113.488;2023-04-29T15:54:29;4.52;38.52
60242;SHT30;46103;52.076;113.488;2023-04-29T15:57:33;4.36;39.07
60242;SHT30;46103;52.076;113.488;2023-04-29T16:00:37;4.30;38.78
60242;SHT30;46103;52.076;113.488;2023-04-29T16:03:40;4.13;38.98
60242;SHT30;46103;52.076;113.488;2023-04-29T16:06:43;3.98;39.27
60242;SHT30;46103;52.076;113.488;2023-04-29T16:09:47;3.85;39.59
60242;SHT30;46103;52.076;113.488;2023-04-29T16:12:51;3.85;39.02
60242;SHT30;46103;52.076;113.488;2023-04-29T16:15:56;3.78;39.38
60242;SHT30;46103;52.076;113.488;2023-04-29T16:19:00;3.75;39.53
60242;SHT30;46103;52.076;113.488;2023-04-29T16:22:03;3.63;39.75
60242;SHT30;46103;52.076;113.488;2023-04-29T16:25:08;3.57;39.90
60242;SHT30;46103;52.076;113.488;2023-04-29T16:28:14;3.56;40.30
60242;SHT30;46103;52.076;113.488;2023-04-29T16:31:17;3.44;40.20
60242;SHT30;46103;52.076;113.488;2023-04-29T16:34:22;3.33;40.97
60242;SHT30;46103;52.076;113.488;2023-04-29T16:37:26;3.23;41.34
60242;SHT30;46103;52.076;113.488;2023-04-29T16:40:30;3.16;41.78
60242;SHT30;46103;52.076;113.488;2023-04-29T16:43:34;3.09;41.84
60242;SHT30;46103;52.076;113.488;2023-04-29T16:46:38;3.06;41.85
60242;SHT30;46103;52.076;113.488;2023-04-29T16:49:42;3.01;42.20
60242;SHT30;46103;52.076;113.488;2023-04-29T16:52:46;2.92;42.57
60242;SHT30;46103;52.076;113.488;2023-04-29T16:55:50;2.93;42.53
60242;SHT30;46103;52.076;113.488;2023-04-29T16:58:55;2.93;42.11
60242;SHT30;46103;52.076;113.488;2023-04-29T17:01:59;2.91;42.12
60242;SHT30;46103;52.076;113.488;2023-04-29T17:05:09;2.82;42.19
60242;SHT30;46103;52.076;113.488;2023-04-29T17:08:13;2.74;42.68
60242;SHT30;46103;52.076;113.488;2023-04-29T17:11:18;2.65;42.89
60242;SHT30;46103;52.076;113.488;2023-04-29T17:14:21;2.60;43.24
60242;SHT30;46103;52.076;113.488;2023-04-29T17:17:27;2.61;43.20
60242;SHT30;46103;52.076;113.488;2023-04-29T17:20:31;2.61;43.31
60242;SHT30;46103;52.076;113.488;2023-04-29T17:23:35;2.55;43.67
60242;SHT30;46103;52.076;113.488;2023-04-29T17:26:48;2.48;44.28
60242;SHT30;46103;52.076;113.488;2023-04-29T17:29:52;2.47;44.28
60242;SHT30;46103;52.076;113.488;2023-04-29T17:32:57;2.41;44.73
60242;SHT30;46103;52.076;113.488;2023-04-29T17:36:07;2.32;44.95
60242;SHT30;46103;52.076;113.488;2023-04-29T17:39:12;2.25;45.32
60242;SHT30;46103;52.076;113.488;2023-04-29T17:42:18;2.22;45.58
60242;SHT30;46103;52.076;113.488;2023-04-29T17:45:23;2.17;45.59
60242;SHT30;46103;52.076;113.488;2023-04-29T17:48:29;2.10;46.01
60242;SHT30;46103;52.076;113.488;2023-04-29T17:51:35;2.05;46.28
60242;SHT30;46103;52.076;113.488;2023-04-29T17:54:40;1.94;46.34
60242;SHT30;46103;52.076;113.488;2023-04-29T17:57:46;1.86;46.65
60242;SHT30;46103;52.076;113.488;2023-04-29T18:00:52;1.79;46.88
60242;SHT30;46103;52.076;113.488;2023-04-29T18:03:55;1.75;47.04
60242;SHT30;46103;52.076;113.488;2023-04-29T18:06:59;1.65;47.39
60242;SHT30;46103;52.076;113.488;2023-04-29T18:10:05;1.60;47.62
60242;SHT30;46103;52.076;113.488;2023-04-29T18:13:13;1.60;47.58
60242;SHT30;46103;52.076;113.488;2023-04-29T18:16:17;1.48;47.99
60242;SHT30;46103;52.076;113.488;2023-04-29T18:19:22;1.44;48.73
60242;SHT30;46103;52.076;113.488;2023-04-29T18:22:26;1.37;48.72
60242;SHT30;46103;52.076;113.488;2023-04-29T18:25:30;1.36;48.62
60242;SHT30;46103;52.076;113.488;2023-04-29T18:28:33;1.33;48.51
60242;SHT30;46103;52.076;113.488;2023-04-29T18:31:38;1.30;48.73
60242;SHT30;46103;52.076;113.488;2023-04-29T18:34:41;1.27;49.11
60242;SHT30;46103;52.076;113.488;2023-04-29T18:37:47;1.23;48.67
60242;SHT30;46103;52.076;113.488;2023-04-29T18:40:51;1.19;48.53
60242;SHT30;46103;52.076;113.488;2023-04-29T18:43:55;1.19;48.43
60242;SHT30;46103;52.076;113.488;2023-04-29T18:46:59;1.16;48.26
60242;SHT30;46103;52.076;113.488;2023-04-29T18:50:04;1.16;48.34
60242;SHT30;46103;52.076;113.488;2023-04-29T18:53:08;1.22;48.24
60242;SHT30;46103;52.076;113.488;2023-04-29T18:56:12;1.22;48.18
60242;SHT30;46103;52.076;113.488;2023-04-29T18:59:16;1.19;48.10
60242;SHT30;46103;52.076;113.488;2023-04-29T19:02:24;1.23;48.21
60242;SHT30;46103;52.076;113.488;2023-04-29T19:05:41;1.22;48.40
60242;SHT30;46103;52.076;113.488;2023-04-29T19:08:45;1.26;48.29
60242;SHT30;46103;52.076;113.488;2023-04-29T19:11:54;1.26;48.55
60242;SHT30;46103;52.076;113.488;2023-04-29T19:14:58;1.20;48.86
60242;SHT30;46103;52.076;113.488;2023-04-29T19:18:02;1.15;49.00
60242;SHT30;46103;52.076;113.488;2023-04-29T19:21:07;1.10;49.40
60242;SHT30;46103;52.076;113.488;2023-04-29T19:24:12;1.03;49.76
60242;SHT30;46103;52.076;113.488;2023-04-29T19:27:16;0.91;50.04
60242;SHT30;46103;52.076;113.488;2023-04-29T19:30:24;0.88;50.21
60242;SHT30;46103;52.076;113.488;2023-04-29T19:33:28;0.78;50.38
60242;SHT30;46103;52.076;113.488;2023-04-29T19:36:33;0.74;50.79
60242;SHT30;46103;52.076;113.488;2023-04-29T19:39:37;0.64;51.02
60242;SHT30;46103;52.076;113.488;2023-04-29T19:42:41;0.60;51.20
60242;SHT30;46103;52.076;113.488;2023-04-29T19:45:45;0.51;51.46
60242;SHT30;46103;52.076;113.488;2023-04-29T19:48:49;0.44;51.67
60242;SHT30;46103;52.076;113.488;2023-04-29T19:51:54;0.46;52.00